sensor_id;sensor_type;location;lat;lon;timestamp;pressure;altitude;pressure_sealevel;temperature
30001;BMP280;16845;48.670;9.000;2023-08-08T00:01:08;95690.75;;;12.72
30001;BMP280;16845;48.670;9.000;2023-08-08T00:03:34;95686.31;;;12.79
30001;BMP280;16845;48.670;9.000;2023-08-08T00:06:01;95693.09;;;12.77
30001;BMP280;16845;48.670;9.000;2023-08-08T00:08:29;95699.06;;;12.74
30001;BMP280;16845;48.670;9.000;2023-08-08T00:10:55;95702.22;;;12.79
30001;BMP280;16845;48.670;9.000;2023-08-08T00:13:22;95698.84;;;12.80
30001;BMP280;16845;48.670;9.000;2023-08-08T00:15:49;95699.38;;;12.90
30001;BMP280;16845;48.670;9.000;2023-08-08T00:18:15;95693.53;;;13.12
30001;BMP280;16845;48.670;9.000;2023-08-08T00:20:42;95687.25;;;13.01
30001;BMP280;16845;48.670;9.000;2023-08-08T00:23:08;95700.09;;;13.16
30001;BMP280;16845;48.670;9.000;2023-08-08T00:25:36;95698.56;;;13.12
30001;BMP280;16845;48.670;9.000;2023-08-08T00:28:03;95703.47;;;13.15
30001;BMP280;16845;48.670;9.000;2023-08-08T00:30:30;95699.50;;;13.10
30001;BMP280;16845;48.670;9.000;2023-08-08T00:32:56;95700.53;;;13.27
30001;BMP280;16845;48.670;9.000;2023-08-08T00:35:23;95700.63;;;13.24
30001;BMP280;16845;48.670;9.000;2023-08-08T00:37:50;95704.69;;;13.28
30001;BMP280;16845;48.670;9.000;2023-08-08T00:40:16;95697.84;;;13.32
30001;BMP280;16845;48.670;9.000;2023-08-08T00:42:44;95703.91;;;13.26
30001;BMP280;16845;48.670;9.000;2023-08-08T00:45:11;95692.44;;;13.19
30001;BMP280;16845;48.670;9.000;2023-08-08T00:47:37;95694.22;;;13.39
30001;BMP280;16845;48.670;9.000;2023-08-08T00:50:05;95691.75;;;13.37
30001;BMP280;16845;48.670;9.000;2023-08-08T00:52:32;95701.47;;;13.25
30001;BMP280;16845;48.670;9.000;2023-08-08T00:54:59;95699.13;;;13.20
30001;BMP280;16845;48.670;9.000;2023-08-08T00:57:26;95686.44;;;13.22
30001;BMP280;16845;48.670;9.000;2023-08-08T00:59:54;95686.22;;;13.06
30001;BMP280;16845;48.670;9.000;2023-08-08T01:02:20;95683.00;;;13.01
30001;BMP280;16845;48.670;9.000;2023-08-08T01:04:47;95689.38;;;13.11
30001;BMP280;16845;48.670;9.000;2023-08-08T01:07:24;95683.13;;;13.21
30001;BMP280;16845;48.670;9.000;2023-08-08T01:09:59;95679.59;;;13.25
30001;BMP280;16845;48.670;9.000;2023-08-08T01:12:27;95681.69;;;13.14
30001;BMP280;16845;48.670;9.000;2023-08-08T01:14:55;95677.22;;;12.99
30001;BMP280;16845;48.670;9.000;2023-08-08T01:17:24;95670.44;;;13.01
30001;BMP280;16845;48.670;9.000;2023-08-08T01:19:52;95684.44;;;13.08
30001;BMP280;16845;48.670;9.000;2023-08-08T01:22:23;95689.56;;;13.05
30001;BMP280;16845;48.670;9.000;2023-08-08T01:24:54;95675.09;;;13.12
30001;BMP280;16845;48.670;9.000;2023-08-08T01:27:20;95682.22;;;13.01
30001;BMP280;16845;48.670;9.000;2023-08-08T01:29:47;95675.47;;;13.01
30001;BMP280;16845;48.670;9.000;2023-08-08T01:32:14;95673.06;;;12.98
30001;BMP280;16845;48.670;9.000;2023-08-08T01:34:41;95669.06;;;13.16
30001;BMP280;16845;48.670;9.000;2023-08-08T01:37:11;95670.84;;;13.12
30001;BMP280;16845;48.670;9.000;2023-08-08T01:39:40;95666.91;;;13.05
30001;BMP280;16845;48.670;9.000;2023-08-08T01:42:08;95665.03;;;13.12
30001;BMP280;16845;48.670;9.000;2023-08-08T01:44:36;95664.13;;;13.13
30001;BMP280;16845;48.670;9.000;2023-08-08T01:47:03;95664.03;;;13.16
30001;BMP280;16845;48.670;9.000;2023-08-08T01:49:29;95654.00;;;13.14
30001;BMP280;16845;48.670;9.000;2023-08-08T01:51:56;95666.22;;;13.02
30001;BMP280;16845;48.670;9.000;2023-08-08T01:54:23;95655.44;;;12.98
30001;BMP280;16845;48.670;9.000;2023-08-08T01:56:49;95660.16;;;13.07
30001;BMP280;16845;48.670;9.000;2023-08-08T01:59:17;95661.72;;;13.10
30001;BMP280;16845;48.670;9.000;2023-08-08T02:01:44;95656.19;;;13.00
30001;BMP280;16845;48.670;9.000;2023-08-08T02:04:10;95665.19;;;12.83
30001;BMP280;16845;48.670;9.000;2023-08-08T02:06:37;95652.66;;;12.81
30001;BMP280;16845;48.670;9.000;2023-08-08T02:09:03;95657.84;;;12.77
30001;BMP280;16845;48.670;9.000;2023-08-08T02:11:30;95656.41;;;12.94
30001;BMP280;16845;48.670;9.000;2023-08-08T02:13:56;95662.72;;;12.81
30001;BMP280;16845;48.670;9.000;2023-08-08T02:16:24;95656.31;;;12.73
30001;BMP280;16845;48.670;9.000;2023-08-08T02:18:51;95664.47;;;12.79
30001;BMP280;16845;48.670;9.000;2023-08-08T02:21:17;95645.31;;;12.75
30001;BMP280;16845;48.670;9.000;2023-08-08T02:23:44;95648.56;;;12.79
30001;BMP280;16845;48.670;9.000;2023-08-08T02:26:10;95645.06;;;12.83
30001;BMP280;16845;48.670;9.000;2023-08-08T02:28:37;95657.31;;;12.92
30001;BMP280;16845;48.670;9.000;2023-08-08T02:31:03;95651.00;;;12.80
30001;BMP280;16845;48.670;9.000;2023-08-08T02:33:31;95652.44;;;12.64
30001;BMP280;16845;48.670;9.000;2023-08-08T02:35:58;95653.09;;;12.69
30001;BMP280;16845;48.670;9.000;2023-08-08T02:38:24;95656.16;;;12.77
30001;BMP280;16845;48.670;9.000;2023-08-08T02:40:51;95642.66;;;12.80
30001;BMP280;16845;48.670;9.000;2023-08-08T02:43:17;95645.44;;;12.72
30001;BMP280;16845;48.670;9.000;2023-08-08T02:45:44;95648.88;;;12.70
30001;BMP280;16845;48.670;9.000;2023-08-08T02:48:10;95649.16;;;12.62
30001;BMP280;16845;48.670;9.000;2023-08-08T02:50:38;95643.34;;;12.60
30001;BMP280;16845;48.670;9.000;2023-08-08T02:53:05;95642.47;;;12.61
30001;BMP280;16845;48.670;9.000;2023-08-08T02:55:31;95648.78;;;12.48
30001;BMP280;16845;48.670;9.000;2023-08-08T02:57:58;95638.56;;;12.53
30001;BMP280;16845;48.670;9.000;2023-08-08T03:00:24;95646.53;;;12.65
30001;BMP280;16845;48.670;9.000;2023-08-08T03:02:51;95652.34;;;12.66
30001;BMP280;16845;48.670;9.000;2023-08-08T03:05:18;95650.53;;;12.46
30001;BMP280;16845;48.670;9.000;2023-08-08T03:07:46;95645.50;;;12.46
30001;BMP280;16845;48.670;9.000;2023-08-08T03:10:12;95641.91;;;12.53
30001;BMP280;16845;48.670;9.000;2023-08-08T03:12:39;95642.25;;;12.67
30001;BMP280;16845;48.670;9.000;2023-08-08T03:15:06;95641.03;;;12.54
30001;BMP280;16845;48.670;9.000;2023-08-08T03:17:33;95637.09;;;12.47
30001;BMP280;16845;48.670;9.000;2023-08-08T03:19:59;95641.03;;;12.54
30001;BMP280;16845;48.670;9.000;2023-08-08T03:22:26;95635.88;;;12.57
30001;BMP280;16845;48.670;9.000;2023-08-08T03:24:54;95633.50;;;12.77
30001;BMP280;16845;48.670;9.000;2023-08-08T03:27:21;95637.00;;;12.73
30001;BMP280;16845;48.670;9.000;2023-08-08T03:29:47;95630.53;;;12.66
30001;BMP280;16845;48.670;9.000;2023-08-08T03:32:14;95636.91;;;12.76
30001;BMP280;16845;48.670;9.000;2023-08-08T03:34:41;95644.50;;;12.75
30001;BMP280;16845;48.670;9.000;2023-08-08T03:37:07;95639.56;;;12.72
30001;BMP280;16845;48.670;9.000;2023-08-08T03:39:34;95635.03;;;12.81
30001;BMP280;16845;48.670;9.000;2023-08-08T03:42:02;95643.72;;;12.97
30001;BMP280;16845;48.670;9.000;2023-08-08T03:44:28;95645.66;;;13.12
30001;BMP280;16845;48.670;9.000;2023-08-08T03:46:55;95637.56;;;13.04
30001;BMP280;16845;48.670;9.000;2023-08-08T03:49:41;95639.28;;;13.04
30001;BMP280;16845;48.670;9.000;2023-08-08T03:52:08;95635.94;;;13.03
30001;BMP280;16845;48.670;9.000;2023-08-08T03:54:35;95639.28;;;13.04
30001;BMP280;16845;48.670;9.000;2023-08-08T03:57:03;95645.25;;;13.01
30001;BMP280;16845;48.670;9.000;2023-08-08T03:59:29;95637.56;;;13.04
30001;BMP280;16845;48.670;9.000;2023-08-08T04:01:56;95637.22;;;13.13
30001;BMP280;16845;48.670;9.000;2023-08-08T04:04:22;95640.31;;;13.21
30001;BMP280;16845;48.670;9.000;2023-08-08T04:06:49;95639.13;;;13.08
30001;BMP280;16845;48.670;9.000;2023-08-08T04:09:15;95653.03;;;12.95
30001;BMP280;16845;48.670;9.000;2023-08-08T04:11:42;95645.47;;;12.95
30001;BMP280;16845;48.670;9.000;2023-08-08T04:14:10;95644.53;;;12.98
30001;BMP280;16845;48.670;9.000;2023-08-08T04:16:38;95642.84;;;12.98
30001;BMP280;16845;48.670;9.000;2023-08-08T04:19:05;95650.72;;;12.88
30001;BMP280;16845;48.670;9.000;2023-08-08T04:21:31;95646.84;;;12.79
30001;BMP280;16845;48.670;9.000;2023-08-08T04:23:58;95648.59;;;12.77
30001;BMP280;16845;48.670;9.000;2023-08-08T04:26:24;95649.84;;;12.66
30001;BMP280;16845;48.670;9.000;2023-08-08T04:28:51;95650.06;;;12.60
30001;BMP280;16845;48.670;9.000;2023-08-08T04:31:19;95644.44;;;12.53
30001;BMP280;16845;48.670;9.000;2023-08-08T04:33:45;95653.97;;;12.68
30001;BMP280;16845;48.670;9.000;2023-08-08T04:36:12;95643.41;;;12.59
30001;BMP280;16845;48.670;9.000;2023-08-08T04:38:38;95647.31;;;12.66
30001;BMP280;16845;48.670;9.000;2023-08-08T04:41:05;95653.44;;;12.60
30001;BMP280;16845;48.670;9.000;2023-08-08T04:43:31;95655.81;;;12.63
30001;BMP280;16845;48.670;9.000;2023-08-08T04:45:58;95653.91;;;12.70
30001;BMP280;16845;48.670;9.000;2023-08-08T04:48:26;95650.13;;;12.81
30001;BMP280;16845;48.670;9.000;2023-08-08T04:50:52;95656.13;;;12.79
30001;BMP280;16845;48.670;9.000;2023-08-08T04:53:19;95660.56;;;12.72
30001;BMP280;16845;48.670;9.000;2023-08-08T04:55:45;95663.59;;;12.80
30001;BMP280;16845;48.670;9.000;2023-08-08T04:58:12;95653.03;;;12.71
30001;BMP280;16845;48.670;9.000;2023-08-08T05:00:38;95657.97;;;12.74
30001;BMP280;16845;48.670;9.000;2023-08-08T05:03:05;95655.88;;;12.85
30001;BMP280;16845;48.670;9.000;2023-08-08T05:05:33;95659.88;;;12.90
30001;BMP280;16845;48.670;9.000;2023-08-08T05:07:59;95656.00;;;12.82
30001;BMP280;16845;48.670;9.000;2023-08-08T05:10:26;95661.53;;;12.91
30001;BMP280;16845;48.670;9.000;2023-08-08T05:12:52;95659.31;;;12.82
30001;BMP280;16845;48.670;9.000;2023-08-08T05:15:19;95658.88;;;12.71
30001;BMP280;16845;48.670;9.000;2023-08-08T05:17:45;95654.63;;;12.73
30001;BMP280;16845;48.670;9.000;2023-08-08T05:20:12;95658.53;;;12.57
30001;BMP280;16845;48.670;9.000;2023-08-08T05:22:40;95654.06;;;12.65
30001;BMP280;16845;48.670;9.000;2023-08-08T05:25:07;95660.13;;;12.60
30001;BMP280;16845;48.670;9.000;2023-08-08T05:27:34;95646.28;;;12.71
30001;BMP280;16845;48.670;9.000;2023-08-08T05:30:01;95644.88;;;12.87
30001;BMP280;16845;48.670;9.000;2023-08-08T05:32:27;95647.13;;;12.96
30001;BMP280;16845;48.670;9.000;2023-08-08T05:34:54;95640.75;;;13.09
30001;BMP280;16845;48.670;9.000;2023-08-08T05:37:20;95636.53;;;13.10
30001;BMP280;16845;48.670;9.000;2023-08-08T05:39:48;95644.13;;;13.31
30001;BMP280;16845;48.670;9.000;2023-08-08T05:42:14;95648.41;;;13.29
30001;BMP280;16845;48.670;9.000;2023-08-08T05:44:41;95641.91;;;13.45
30001;BMP280;16845;48.670;9.000;2023-08-08T05:47:08;95646.06;;;13.46
30001;BMP280;16845;48.670;9.000;2023-08-08T05:49:34;95647.09;;;13.62
30001;BMP280;16845;48.670;9.000;2023-08-08T05:52:01;95642.84;;;13.64
30001;BMP280;16845;48.670;9.000;2023-08-08T05:54:28;95639.09;;;13.74
30001;BMP280;16845;48.670;9.000;2023-08-08T05:56:56;95644.50;;;13.85
30001;BMP280;16845;48.670;9.000;2023-08-08T05:59:23;95649.19;;;13.94
30001;BMP280;16845;48.670;9.000;2023-08-08T06:01:49;95651.88;;;14.11
30001;BMP280;16845;48.670;9.000;2023-08-08T06:04:16;95649.16;;;14.15
30001;BMP280;16845;48.670;9.000;2023-08-08T06:06:42;95650.53;;;14.44
30001;BMP280;16845;48.670;9.000;2023-08-08T06:09:09;95654.53;;;14.68
30001;BMP280;16845;48.670;9.000;2023-08-08T06:11:35;95653.25;;;14.78
30001;BMP280;16845;48.670;9.000;2023-08-08T06:14:03;95654.41;;;14.89
30001;BMP280;16845;48.670;9.000;2023-08-08T06:16:30;95652.25;;;15.19
30001;BMP280;16845;48.670;9.000;2023-08-08T06:18:56;95648.00;;;15.39
30001;BMP280;16845;48.670;9.000;2023-08-08T06:21:23;95641.50;;;15.34
30001;BMP280;16845;48.670;9.000;2023-08-08T06:23:49;95638.28;;;15.49
30001;BMP280;16845;48.670;9.000;2023-08-08T06:26:16;95632.34;;;15.85
30001;BMP280;16845;48.670;9.000;2023-08-08T06:28:43;95633.88;;;15.88
30001;BMP280;16845;48.670;9.000;2023-08-08T06:31:10;95628.63;;;16.09
30001;BMP280;16845;48.670;9.000;2023-08-08T06:33:37;95636.03;;;16.29
30001;BMP280;16845;48.670;9.000;2023-08-08T06:36:04;95622.25;;;16.36
30001;BMP280;16845;48.670;9.000;2023-08-08T06:38:31;95631.91;;;16.45
30001;BMP280;16845;48.670;9.000;2023-08-08T06:40:57;95621.84;;;16.27
30001;BMP280;16845;48.670;9.000;2023-08-08T06:43:24;95626.75;;;16.30
30001;BMP280;16845;48.670;9.000;2023-08-08T06:45:50;95633.09;;;16.55
30001;BMP280;16845;48.670;9.000;2023-08-08T06:48:18;95634.63;;;16.74
30001;BMP280;16845;48.670;9.000;2023-08-08T06:50:45;95630.09;;;16.96
30001;BMP280;16845;48.670;9.000;2023-08-08T06:53:11;95618.63;;;17.53
30001;BMP280;16845;48.670;9.000;2023-08-08T06:55:38;95622.03;;;18.12
30001;BMP280;16845;48.670;9.000;2023-08-08T06:58:04;95622.63;;;18.17
30001;BMP280;16845;48.670;9.000;2023-08-08T07:00:31;95612.59;;;18.14
30001;BMP280;16845;48.670;9.000;2023-08-08T07:02:57;95619.06;;;18.20
30001;BMP280;16845;48.670;9.000;2023-08-08T07:05:28;95614.44;;;18.26
30001;BMP280;16845;48.670;9.000;2023-08-08T07:07:55;95617.59;;;18.31
30001;BMP280;16845;48.670;9.000;2023-08-08T07:10:22;95617.47;;;18.62
30001;BMP280;16845;48.670;9.000;2023-08-08T07:12:48;95622.28;;;18.95
30001;BMP280;16845;48.670;9.000;2023-08-08T07:15:15;95621.16;;;19.12
30001;BMP280;16845;48.670;9.000;2023-08-08T07:17:41;95613.34;;;19.43
30001;BMP280;16845;48.670;9.000;2023-08-08T07:20:09;95617.53;;;19.71
30001;BMP280;16845;48.670;9.000;2023-08-08T07:22:37;95610.44;;;19.35
30001;BMP280;16845;48.670;9.000;2023-08-08T07:25:04;95606.78;;;19.53
30001;BMP280;16845;48.670;9.000;2023-08-08T07:27:30;95607.75;;;19.38
30001;BMP280;16845;48.670;9.000;2023-08-08T07:29:57;95610.47;;;19.76
30001;BMP280;16845;48.670;9.000;2023-08-08T07:32:23;95610.19;;;20.32
30001;BMP280;16845;48.670;9.000;2023-08-08T07:34:50;95613.72;;;20.56
30001;BMP280;16845;48.670;9.000;2023-08-08T07:37:16;95606.16;;;20.79
30001;BMP280;16845;48.670;9.000;2023-08-08T07:39:44;95601.59;;;20.84
30001;BMP280;16845;48.670;9.000;2023-08-08T07:42:11;95613.44;;;20.98
30001;BMP280;16845;48.670;9.000;2023-08-08T07:44:37;95608.78;;;20.28
30001;BMP280;16845;48.670;9.000;2023-08-08T07:47:04;95604.47;;;20.16
30001;BMP280;16845;48.670;9.000;2023-08-08T07:49:31;95600.84;;;20.32
30001;BMP280;16845;48.670;9.000;2023-08-08T07:51:57;95595.09;;;20.93
30001;BMP280;16845;48.670;9.000;2023-08-08T07:54:24;95593.53;;;20.40
30001;BMP280;16845;48.670;9.000;2023-08-08T07:56:52;95602.06;;;20.27
30001;BMP280;16845;48.670;9.000;2023-08-08T07:59:19;95601.44;;;19.97
30001;BMP280;16845;48.670;9.000;2023-08-08T08:01:45;95599.88;;;19.82
30001;BMP280;16845;48.670;9.000;2023-08-08T08:04:12;95604.66;;;19.33
30001;BMP280;16845;48.670;9.000;2023-08-08T08:06:38;95604.09;;;19.69
30001;BMP280;16845;48.670;9.000;2023-08-08T08:09:05;95592.19;;;19.43
30001;BMP280;16845;48.670;9.000;2023-08-08T08:11:31;95601.66;;;19.27
30001;BMP280;16845;48.670;9.000;2023-08-08T08:13:59;95606.56;;;19.02
30001;BMP280;16845;48.670;9.000;2023-08-08T08:16:26;95596.00;;;20.03
30001;BMP280;16845;48.670;9.000;2023-08-08T08:18:52;95589.69;;;20.21
30001;BMP280;16845;48.670;9.000;2023-08-08T08:21:19;95597.69;;;20.29
30001;BMP280;16845;48.670;9.000;2023-08-08T08:23:46;95597.25;;;19.96
30001;BMP280;16845;48.670;9.000;2023-08-08T08:26:12;95589.50;;;19.85
30001;BMP280;16845;48.670;9.000;2023-08-08T08:28:39;95598.97;;;20.09
30001;BMP280;16845;48.670;9.000;2023-08-08T08:31:07;95595.09;;;20.04
30001;BMP280;16845;48.670;9.000;2023-08-08T08:33:34;95586.50;;;19.66
30001;BMP280;16845;48.670;9.000;2023-08-08T08:36:00;95601.13;;;19.89
30001;BMP280;16845;48.670;9.000;2023-08-08T08:38:27;95587.38;;;20.43
30001;BMP280;16845;48.670;9.000;2023-08-08T08:40:56;95600.00;;;19.66
30001;BMP280;16845;48.670;9.000;2023-08-08T08:43:23;95598.22;;;18.72
30001;BMP280;16845;48.670;9.000;2023-08-08T08:45:51;95593.13;;;19.14
30001;BMP280;16845;48.670;9.000;2023-08-08T08:48:21;95592.00;;;19.99
30001;BMP280;16845;48.670;9.000;2023-08-08T08:50:48;95590.66;;;20.57
30001;BMP280;16845;48.670;9.000;2023-08-08T08:53:15;95589.78;;;20.96
30001;BMP280;16845;48.670;9.000;2023-08-08T08:55:41;95575.34;;;22.82
30001;BMP280;16845;48.670;9.000;2023-08-08T08:58:09;95569.66;;;22.90
30001;BMP280;16845;48.670;9.000;2023-08-08T09:00:36;95575.06;;;21.83
30001;BMP280;16845;48.670;9.000;2023-08-08T09:03:03;95575.28;;;20.59
30001;BMP280;16845;48.670;9.000;2023-08-08T09:05:31;95583.59;;;21.59
30001;BMP280;16845;48.670;9.000;2023-08-08T09:07:58;95561.84;;;21.30
30001;BMP280;16845;48.670;9.000;2023-08-08T09:10:26;95583.91;;;21.67
30001;BMP280;16845;48.670;9.000;2023-08-08T09:12:53;95573.09;;;22.21
30001;BMP280;16845;48.670;9.000;2023-08-08T09:15:20;95571.22;;;21.66
30001;BMP280;16845;48.670;9.000;2023-08-08T09:17:46;95577.09;;;21.43
30001;BMP280;16845;48.670;9.000;2023-08-08T09:20:16;95567.75;;;22.24
30001;BMP280;16845;48.670;9.000;2023-08-08T09:22:44;95557.31;;;23.06
30001;BMP280;16845;48.670;9.000;2023-08-08T09:25:11;95561.38;;;22.75
30001;BMP280;16845;48.670;9.000;2023-08-08T09:27:38;95574.03;;;21.97
30001;BMP280;16845;48.670;9.000;2023-08-08T09:30:05;95574.41;;;21.57
30001;BMP280;16845;48.670;9.000;2023-08-08T09:32:32;95562.88;;;21.87
30001;BMP280;16845;48.670;9.000;2023-08-08T09:34:59;95560.09;;;22.35
30001;BMP280;16845;48.670;9.000;2023-08-08T09:37:26;95554.06;;;22.82
30001;BMP280;16845;48.670;9.000;2023-08-08T09:39:59;95554.75;;;23.17
30001;BMP280;16845;48.670;9.000;2023-08-08T09:42:26;95558.56;;;22.11
30001;BMP280;16845;48.670;9.000;2023-08-08T09:44:53;95562.28;;;21.83
30001;BMP280;16845;48.670;9.000;2023-08-08T09:47:20;95560.47;;;21.50
30001;BMP280;16845;48.670;9.000;2023-08-08T09:49:48;95548.59;;;22.97
30001;BMP280;16845;48.670;9.000;2023-08-08T09:52:15;95534.28;;;23.70
30001;BMP280;16845;48.670;9.000;2023-08-08T09:54:42;95541.41;;;23.56
30001;BMP280;16845;48.670;9.000;2023-08-08T09:57:10;95536.75;;;24.03
30001;BMP280;16845;48.670;9.000;2023-08-08T09:59:37;95537.72;;;23.49
30001;BMP280;16845;48.670;9.000;2023-08-08T10:02:04;95547.19;;;22.71
30001;BMP280;16845;48.670;9.000;2023-08-08T10:04:32;95544.88;;;21.88
30001;BMP280;16845;48.670;9.000;2023-08-08T10:06:59;95540.22;;;21.82
30001;BMP280;16845;48.670;9.000;2023-08-08T10:09:26;95545.88;;;22.44
30001;BMP280;16845;48.670;9.000;2023-08-08T10:11:54;95534.75;;;22.89
30001;BMP280;16845;48.670;9.000;2023-08-08T10:14:28;95532.06;;;24.69
30001;BMP280;16845;48.670;9.000;2023-08-08T10:16:55;95536.13;;;23.79
30001;BMP280;16845;48.670;9.000;2023-08-08T10:19:23;95533.91;;;24.06
30001;BMP280;16845;48.670;9.000;2023-08-08T10:21:56;95534.84;;;22.54
30001;BMP280;16845;48.670;9.000;2023-08-08T10:24:23;95535.31;;;22.48
30001;BMP280;16845;48.670;9.000;2023-08-08T10:26:53;95542.44;;;22.21
30001;BMP280;16845;48.670;9.000;2023-08-08T10:29:20;95531.63;;;23.18
30001;BMP280;16845;48.670;9.000;2023-08-08T10:31:59;95538.69;;;24.72
30001;BMP280;16845;48.670;9.000;2023-08-08T10:34:27;95526.47;;;25.83
30001;BMP280;16845;48.670;9.000;2023-08-08T10:37:04;95526.44;;;24.14
30001;BMP280;16845;48.670;9.000;2023-08-08T10:39:31;95537.81;;;24.82
30001;BMP280;16845;48.670;9.000;2023-08-08T10:42:01;95526.75;;;26.18
30001;BMP280;16845;48.670;9.000;2023-08-08T10:44:29;95529.41;;;25.59
30001;BMP280;16845;48.670;9.000;2023-08-08T10:47:00;95533.03;;;25.38
30001;BMP280;16845;48.670;9.000;2023-08-08T10:49:26;95518.66;;;24.45
30001;BMP280;16845;48.670;9.000;2023-08-08T10:51:53;95525.03;;;23.47
30001;BMP280;16845;48.670;9.000;2023-08-08T10:54:24;95537.06;;;23.78
30001;BMP280;16845;48.670;9.000;2023-08-08T10:56:52;95534.97;;;25.74
30001;BMP280;16845;48.670;9.000;2023-08-08T10:59:21;95521.97;;;28.99
30001;BMP280;16845;48.670;9.000;2023-08-08T11:01:51;95516.06;;;26.13
30001;BMP280;16845;48.670;9.000;2023-08-08T11:04:22;95523.31;;;26.46
30001;BMP280;16845;48.670;9.000;2023-08-08T11:06:49;95502.66;;;26.84
30001;BMP280;16845;48.670;9.000;2023-08-08T11:09:17;95515.00;;;26.80
30001;BMP280;16845;48.670;9.000;2023-08-08T11:11:44;95502.56;;;27.12
30001;BMP280;16845;48.670;9.000;2023-08-08T11:14:13;95515.28;;;27.13
30001;BMP280;16845;48.670;9.000;2023-08-08T11:16:40;95513.09;;;27.63
30001;BMP280;16845;48.670;9.000;2023-08-08T11:19:07;95498.47;;;27.63
30001;BMP280;16845;48.670;9.000;2023-08-08T11:21:36;95494.84;;;28.69
30001;BMP280;16845;48.670;9.000;2023-08-08T11:24:03;95524.94;;;27.83
30001;BMP280;16845;48.670;9.000;2023-08-08T11:26:30;95516.47;;;27.90
30001;BMP280;16845;48.670;9.000;2023-08-08T11:28:58;95502.88;;;26.63
30001;BMP280;16845;48.670;9.000;2023-08-08T11:31:25;95509.97;;;26.04
30001;BMP280;16845;48.670;9.000;2023-08-08T11:33:52;95512.16;;;26.18
30001;BMP280;16845;48.670;9.000;2023-08-08T11:36:19;95504.56;;;26.17
30001;BMP280;16845;48.670;9.000;2023-08-08T11:38:48;95513.47;;;26.41
30001;BMP280;16845;48.670;9.000;2023-08-08T11:41:15;95514.53;;;25.63
30001;BMP280;16845;48.670;9.000;2023-08-08T11:43:43;95494.75;;;26.94
30001;BMP280;16845;48.670;9.000;2023-08-08T11:46:09;95501.09;;;26.64
30001;BMP280;16845;48.670;9.000;2023-08-08T11:48:38;95494.03;;;27.02
30001;BMP280;16845;48.670;9.000;2023-08-08T11:51:04;95515.66;;;26.27
30001;BMP280;16845;48.670;9.000;2023-08-08T11:53:31;95500.19;;;25.60
30001;BMP280;16845;48.670;9.000;2023-08-08T11:56:00;95502.19;;;24.59
30001;BMP280;16845;48.670;9.000;2023-08-08T11:58:26;95509.53;;;23.06
30001;BMP280;16845;48.670;9.000;2023-08-08T12:00:53;95505.69;;;24.58
30001;BMP280;16845;48.670;9.000;2023-08-08T12:03:20;95502.63;;;24.23
30001;BMP280;16845;48.670;9.000;2023-08-08T12:05:47;95505.69;;;24.37
30001;BMP280;16845;48.670;9.000;2023-08-08T12:08:17;95502.56;;;24.54
30001;BMP280;16845;48.670;9.000;2023-08-08T12:10:47;95499.97;;;23.93
30001;BMP280;16845;48.670;9.000;2023-08-08T12:13:21;95495.06;;;23.27
30001;BMP280;16845;48.670;9.000;2023-08-08T12:15:48;95494.66;;;22.67
30001;BMP280;16845;48.670;9.000;2023-08-08T12:18:16;95495.81;;;23.50
30001;BMP280;16845;48.670;9.000;2023-08-08T12:20:43;95485.75;;;24.00
30001;BMP280;16845;48.670;9.000;2023-08-08T12:23:10;95492.44;;;24.53
30001;BMP280;16845;48.670;9.000;2023-08-08T12:25:36;95485.94;;;24.79
30001;BMP280;16845;48.670;9.000;2023-08-08T12:28:03;95482.88;;;27.20
30001;BMP280;16845;48.670;9.000;2023-08-08T12:30:31;95477.88;;;28.67
30001;BMP280;16845;48.670;9.000;2023-08-08T12:32:58;95469.03;;;28.01
30001;BMP280;16845;48.670;9.000;2023-08-08T12:35:24;95481.16;;;28.26
30001;BMP280;16845;48.670;9.000;2023-08-08T12:37:51;95472.34;;;29.13
30001;BMP280;16845;48.670;9.000;2023-08-08T12:40:18;95477.69;;;29.27
30001;BMP280;16845;48.670;9.000;2023-08-08T12:42:44;95458.69;;;29.44
30001;BMP280;16845;48.670;9.000;2023-08-08T12:45:11;95474.41;;;28.50
30001;BMP280;16845;48.670;9.000;2023-08-08T12:47:39;95468.00;;;27.14
30001;BMP280;16845;48.670;9.000;2023-08-08T12:50:06;95470.91;;;24.65
30001;BMP280;16845;48.670;9.000;2023-08-08T12:52:33;95475.19;;;23.20
30001;BMP280;16845;48.670;9.000;2023-08-08T12:55:00;95472.13;;;22.72
30001;BMP280;16845;48.670;9.000;2023-08-08T12:57:26;95477.22;;;21.60
30001;BMP280;16845;48.670;9.000;2023-08-08T12:59:53;95478.88;;;21.48
30001;BMP280;16845;48.670;9.000;2023-08-08T13:02:19;95488.28;;;21.01
30001;BMP280;16845;48.670;9.000;2023-08-08T13:04:47;95489.94;;;20.52
30001;BMP280;16845;48.670;9.000;2023-08-08T13:07:14;95493.78;;;20.82
30001;BMP280;16845;48.670;9.000;2023-08-08T13:09:40;95494.13;;;20.53
30001;BMP280;16845;48.670;9.000;2023-08-08T13:12:07;95499.69;;;21.78
30001;BMP280;16845;48.670;9.000;2023-08-08T13:14:34;95487.91;;;25.64
30001;BMP280;16845;48.670;9.000;2023-08-08T13:17:00;95465.06;;;27.00
30001;BMP280;16845;48.670;9.000;2023-08-08T13:19:27;95471.56;;;25.74
30001;BMP280;16845;48.670;9.000;2023-08-08T13:21:55;95478.50;;;24.26
30001;BMP280;16845;48.670;9.000;2023-08-08T13:24:22;95470.25;;;24.02
30001;BMP280;16845;48.670;9.000;2023-08-08T13:26:48;95467.66;;;23.07
30001;BMP280;16845;48.670;9.000;2023-08-08T13:29:15;95477.69;;;21.88
30001;BMP280;16845;48.670;9.000;2023-08-08T13:31:41;95476.97;;;21.63
30001;BMP280;16845;48.670;9.000;2023-08-08T13:34:08;95477.69;;;22.55
30001;BMP280;16845;48.670;9.000;2023-08-08T13:36:34;95478.25;;;22.92
30001;BMP280;16845;48.670;9.000;2023-08-08T13:39:03;95471.38;;;22.26
30001;BMP280;16845;48.670;9.000;2023-08-08T13:41:29;95479.25;;;22.23
30001;BMP280;16845;48.670;9.000;2023-08-08T13:43:56;95477.41;;;22.14
30001;BMP280;16845;48.670;9.000;2023-08-08T13:46:22;95471.69;;;23.10
30001;BMP280;16845;48.670;9.000;2023-08-08T13:48:49;95465.94;;;22.64
30001;BMP280;16845;48.670;9.000;2023-08-08T13:51:15;95466.28;;;22.70
30001;BMP280;16845;48.670;9.000;2023-08-08T13:53:42;95466.41;;;22.80
30001;BMP280;16845;48.670;9.000;2023-08-08T13:56:10;95466.75;;;22.75
30001;BMP280;16845;48.670;9.000;2023-08-08T13:58:36;95476.59;;;22.25
30001;BMP280;16845;48.670;9.000;2023-08-08T14:01:03;95468.84;;;21.92
30001;BMP280;16845;48.670;9.000;2023-08-08T14:03:29;95482.34;;;21.00
30001;BMP280;16845;48.670;9.000;2023-08-08T14:05:56;95484.13;;;21.11
30001;BMP280;16845;48.670;9.000;2023-08-08T14:08:23;95482.06;;;20.92